createdAt,value
2022-11-14T00:01:13.068Z,53.38
2022-11-14T00:03:39.405Z,51.92
2022-11-14T00:06:06.806Z,45.83
2022-11-14T00:08:33.287Z,49.80
2022-11-14T00:10:59.623Z,57.83
2022-11-14T00:13:25.844Z,54.88
2022-11-14T00:15:55.383Z,51.92
2022-11-14T00:18:22.053Z,55.58
2022-11-14T00:20:48.784Z,46.53
2022-11-14T00:23:15.224Z,44.85
2022-11-14T00:25:41.460Z,55.13
2022-11-14T00:28:08.697Z,48.00
2022-11-14T00:30:34.979Z,49.58
2022-11-14T00:33:01.203Z,46.85
2022-11-14T00:35:27.449Z,42.35
2022-11-14T00:37:53.840Z,48.50
2022-11-14T00:40:20.113Z,48.50
2022-11-14T00:42:46.345Z,47.90
2022-11-14T00:45:12.574Z,45.53
2022-11-14T00:47:38.807Z,46.47
2022-11-14T00:50:05.258Z,45.83
2022-11-14T00:52:31.466Z,44.63
2022-11-14T00:54:57.714Z,45.58
2022-11-14T00:57:23.985Z,44.00
2022-11-14T00:59:50.295Z,44.63
2022-11-14T01:02:16.667Z,45.45
2022-11-14T01:04:42.899Z,41.55
2022-11-14T01:07:09.200Z,47.15
2022-11-14T01:09:35.565Z,39.70
2022-11-14T01:12:01.813Z,38.45
2022-11-14T01:14:28.254Z,40.95
2022-11-14T01:16:54.545Z,39.53
2022-11-14T01:19:20.820Z,39.40
2022-11-14T01:21:47.066Z,41.20
2022-11-14T01:24:13.327Z,42.97
2022-11-14T01:26:39.580Z,43.75
2022-11-14T01:29:05.842Z,35.80
2022-11-14T01:31:32.122Z,48.78
2022-11-14T01:33:58.477Z,38.72
2022-11-14T01:36:24.771Z,39.85
2022-11-14T01:38:54.165Z,43.45
2022-11-14T01:41:20.880Z,40.33
2022-11-14T01:43:47.564Z,36.53
2022-11-14T01:46:26.164Z,43.50
2022-11-14T01:48:55.360Z,52.47
2022-11-14T01:51:25.056Z,46.08
2022-11-14T01:53:52.890Z,45.85
2022-11-14T01:56:20.667Z,43.45
2022-11-14T01:58:49.748Z,38.25
2022-11-14T02:01:16.036Z,41.28
2022-11-14T02:03:44.038Z,39.15
2022-11-14T02:06:13.190Z,41.40
2022-11-14T02:08:39.762Z,37.97
2022-11-14T02:11:06.024Z,43.55
2022-11-14T02:13:32.276Z,41.90
2022-11-14T02:15:58.764Z,39.03
2022-11-14T02:18:25.058Z,40.58
2022-11-14T02:20:51.295Z,37.45
2022-11-14T02:23:28.066Z,40.20
2022-11-14T02:25:54.466Z,41.95
2022-11-14T02:28:21.645Z,35.75
2022-11-14T02:30:48.236Z,40.67
2022-11-14T02:33:14.656Z,37.42
2022-11-14T02:35:41.284Z,36.85
2022-11-14T02:38:07.557Z,38.25
2022-11-14T02:40:34.060Z,34.70
2022-11-14T02:43:00.373Z,35.05
2022-11-14T02:45:27.187Z,33.90
2022-11-14T02:47:53.455Z,38.20
2022-11-14T02:50:19.780Z,34.40
2022-11-14T02:52:45.995Z,38.95
2022-11-14T02:55:12.257Z,33.58
2022-11-14T02:57:38.493Z,42.40
2022-11-14T03:00:08.721Z,38.22
2022-11-14T03:02:38.012Z,36.63
2022-11-14T03:05:04.384Z,40.65
2022-11-14T03:07:30.690Z,37.05
2022-11-14T03:09:56.967Z,40.00
2022-11-14T03:12:23.233Z,36.95
2022-11-14T03:14:49.459Z,33.67
2022-11-14T03:17:15.690Z,35.97
2022-11-14T03:19:41.906Z,34.00
2022-11-14T03:22:08.238Z,33.40
2022-11-14T03:24:34.488Z,33.70
2022-11-14T03:27:00.716Z,32.63
2022-11-14T03:29:26.929Z,31.05
2022-11-14T03:31:53.174Z,31.80
2022-11-14T03:34:19.396Z,32.42
2022-11-14T03:36:45.643Z,32.63
2022-11-14T03:39:11.907Z,32.30
2022-11-14T03:41:38.146Z,30.73
2022-11-14T03:44:04.527Z,32.05
2022-11-14T03:46:30.943Z,33.35
2022-11-14T03:48:57.188Z,30.77
2022-11-14T03:51:23.484Z,29.67
2022-11-14T03:53:49.779Z,31.45
2022-11-14T03:56:16.032Z,29.83
2022-11-14T03:58:42.274Z,35.33
2022-11-14T04:01:08.578Z,28.90
2022-11-14T04:03:34.869Z,35.38
2022-11-14T04:06:01.128Z,28.08
2022-11-14T04:08:27.640Z,31.80
2022-11-14T04:10:54.171Z,32.33
2022-11-14T04:13:20.408Z,28.98
2022-11-14T04:15:46.690Z,34.20
2022-11-14T04:18:12.985Z,32.22
2022-11-14T04:20:39.270Z,30.67
2022-11-14T04:23:05.511Z,34.83
2022-11-14T04:25:31.775Z,31.30
2022-11-14T04:27:58.008Z,30.45
2022-11-14T04:30:24.317Z,32.10
2022-11-14T04:32:50.598Z,34.35
2022-11-14T04:35:16.895Z,35.72
2022-11-14T04:37:43.144Z,34.30
2022-11-14T04:40:09.578Z,32.97
2022-11-14T04:42:35.819Z,39.28
2022-11-14T04:45:02.284Z,35.20
2022-11-14T04:47:28.662Z,32.85
2022-11-14T04:49:54.908Z,34.85
2022-11-14T04:52:21.195Z,42.17
2022-11-14T04:54:47.454Z,35.58
2022-11-14T04:57:13.954Z,35.25
2022-11-14T04:59:40.220Z,40.60
2022-11-14T05:02:06.474Z,34.42
2022-11-14T05:04:32.778Z,43.55
2022-11-14T05:06:59.015Z,45.47
2022-11-14T05:09:25.288Z,42.97
2022-11-14T05:11:51.586Z,43.17
2022-11-14T05:14:17.844Z,49.70
2022-11-14T05:16:44.094Z,43.17
2022-11-14T05:19:10.339Z,42.13
2022-11-14T05:21:36.579Z,41.95
2022-11-14T05:24:02.835Z,42.30
2022-11-14T05:26:29.075Z,44.90
2022-11-14T05:28:55.308Z,40.85
2022-11-14T05:31:21.544Z,52.55
2022-11-14T05:33:48.086Z,40.08
2022-11-14T05:36:15.651Z,49.50
2022-11-14T05:38:42.336Z,41.33
2022-11-14T05:41:10.378Z,40.47
2022-11-14T05:43:36.750Z,38.67
2022-11-14T05:46:03.689Z,41.85
2022-11-14T05:50:57.111Z,40.42
2022-11-14T05:53:23.399Z,48.20
2022-11-14T05:55:49.657Z,36.63
2022-11-14T05:58:15.884Z,42.55
2022-11-14T06:00:50.774Z,39.85
2022-11-14T06:03:19.842Z,36.80
2022-11-14T06:05:46.067Z,43.47
2022-11-14T06:08:13.609Z,53.08
2022-11-14T06:10:39.854Z,42.65
2022-11-14T06:13:06.116Z,43.83
2022-11-14T06:15:32.375Z,42.83
2022-11-14T06:17:58.607Z,41.90
2022-11-14T06:20:24.851Z,43.75
2022-11-14T06:22:54.060Z,35.58
2022-11-14T06:25:20.307Z,34.00
2022-11-14T06:27:46.538Z,33.58
2022-11-14T06:30:13.036Z,31.45
2022-11-14T06:32:39.295Z,34.70
2022-11-14T06:35:06.318Z,33.53
2022-11-14T06:40:00.125Z,34.03
2022-11-14T06:42:26.390Z,32.83
2022-11-14T06:44:52.603Z,36.17
2022-11-14T06:47:18.835Z,29.92
2022-11-14T06:49:45.064Z,32.42
2022-11-14T06:52:11.350Z,33.28
2022-11-14T06:54:37.600Z,34.22
2022-11-14T06:57:03.931Z,35.10
2022-11-14T06:59:30.196Z,29.88
2022-11-14T07:01:56.609Z,30.38
2022-11-14T07:04:22.890Z,28.70
2022-11-14T07:06:49.186Z,30.67
2022-11-14T07:09:15.488Z,26.55
2022-11-14T07:11:42.168Z,32.03
2022-11-14T07:14:08.937Z,27.42
2022-11-14T07:16:35.791Z,23.50
2022-11-14T07:19:02.870Z,29.33
2022-11-14T07:21:30.054Z,28.65
2022-11-14T07:23:56.915Z,29.58
2022-11-14T07:26:23.564Z,29.17
2022-11-14T07:28:53.538Z,30.63
2022-11-14T07:31:21.832Z,27.92
2022-11-14T07:33:48.176Z,31.10
2022-11-14T07:36:15.344Z,30.90
2022-11-14T07:38:41.737Z,30.35
2022-11-14T07:41:12.318Z,27.70
2022-11-14T07:43:38.659Z,25.45
2022-11-14T07:46:10.231Z,25.20
2022-11-14T07:48:36.510Z,25.33
2022-11-14T07:51:03.953Z,24.80
2022-11-14T07:53:30.536Z,21.48
2022-11-14T07:55:57.555Z,22.63
2022-11-14T08:00:50.008Z,21.70
2022-11-14T08:03:16.303Z,22.88
2022-11-14T08:05:42.745Z,24.55
2022-11-14T08:08:09.007Z,27.92
2022-11-14T08:10:35.264Z,25.13
2022-11-14T08:13:31.467Z,26.38
2022-11-14T08:15:49.328Z,25.15
2022-11-14T08:18:15.569Z,22.08
2022-11-14T08:20:41.792Z,18.63
2022-11-14T08:23:08.048Z,21.13
2022-11-14T08:25:34.281Z,22.55
2022-11-14T08:28:00.544Z,24.55
2022-11-14T08:30:26.838Z,22.05
2022-11-14T08:32:53.143Z,33.83
2022-11-14T08:35:19.511Z,27.83
2022-11-14T08:37:45.779Z,22.85
2022-11-14T08:40:12.262Z,30.15
2022-11-14T08:42:38.756Z,24.88
2022-11-14T08:45:05.368Z,23.83
2022-11-14T08:47:31.614Z,35.22
2022-11-14T08:49:57.836Z,25.52
2022-11-14T08:52:24.074Z,22.70
2022-11-14T08:54:50.310Z,23.10
2022-11-14T08:57:16.582Z,19.85
2022-11-14T08:59:42.803Z,22.45
2022-11-14T09:02:13.580Z,21.35
2022-11-14T09:04:40.236Z,19.65
2022-11-14T09:07:06.902Z,17.75
2022-11-14T09:09:33.182Z,20.20
2022-11-14T09:11:59.399Z,19.70
2022-11-14T09:14:25.659Z,19.75
2022-11-14T09:16:51.908Z,22.20
2022-11-14T09:19:18.167Z,19.85
2022-11-14T09:21:44.393Z,18.10
2022-11-14T09:24:10.643Z,20.85
2022-11-14T09:26:36.884Z,19.77
2022-11-14T09:29:03.124Z,23.63
2022-11-14T09:31:29.804Z,18.48
2022-11-14T09:33:56.043Z,19.00
2022-11-14T09:36:23.078Z,20.83
2022-11-14T09:41:15.507Z,17.88
2022-11-14T09:43:44.765Z,22.58
2022-11-14T09:46:16.690Z,19.38
2022-11-14T09:48:43.139Z,16.80
2022-11-14T09:51:14.991Z,16.73
2022-11-14T09:53:57.317Z,17.58
2022-11-14T09:56:27.156Z,18.38
2022-11-14T09:58:55.619Z,20.85
2022-11-14T10:01:46.058Z,21.25
2022-11-14T10:04:15.446Z,17.65
2022-11-14T10:07:00.817Z,19.80
2022-11-14T10:09:35.878Z,16.50
2022-11-14T10:12:09.843Z,22.15
2022-11-14T10:14:51.516Z,22.83
2022-11-14T10:17:29.219Z,16.65
2022-11-14T10:20:07.416Z,27.25
2022-11-14T10:22:36.677Z,17.40
2022-11-14T10:25:02.921Z,21.15
2022-11-14T10:27:32.885Z,20.15
2022-11-14T10:30:01.929Z,19.92
2022-11-14T10:32:28.161Z,20.05
2022-11-14T10:34:58.350Z,17.33
2022-11-14T10:37:31.568Z,22.00
2022-11-14T10:40:02.560Z,20.48
2022-11-14T10:42:32.134Z,21.33
2022-11-14T10:45:11.382Z,21.13
2022-11-14T10:47:40.579Z,16.15
2022-11-14T10:50:19.081Z,20.42
2022-11-14T10:52:45.830Z,16.77
2022-11-14T10:55:16.809Z,27.38
2022-11-14T10:57:44.930Z,28.17
2022-11-14T11:00:12.783Z,19.55
2022-11-14T11:02:47.898Z,22.08
2022-11-14T11:05:15.848Z,19.23
2022-11-14T11:08:28.127Z,19.90
2022-11-14T11:11:15.788Z,27.37
2022-11-14T11:13:50.547Z,16.73
2022-11-14T11:16:19.679Z,80.93
2022-11-14T11:18:50.549Z,114.70
2022-11-14T11:21:18.890Z,25.98
2022-11-14T11:23:49.879Z,19.60
2022-11-14T11:26:18.055Z,21.05
2022-11-14T11:29:00.327Z,19.05
2022-11-14T11:31:26.567Z,19.83
2022-11-14T11:33:52.799Z,19.30
2022-11-14T11:36:20.978Z,19.77
2022-11-14T11:38:47.305Z,24.75
2022-11-14T11:44:17.045Z,21.45
2022-11-14T11:46:48.775Z,17.90
2022-11-14T11:49:41.549Z,19.23
2022-11-14T11:52:12.798Z,29.42
2022-11-14T11:55:02.410Z,20.90
2022-11-14T11:57:31.235Z,17.45
2022-11-14T12:00:06.491Z,18.95
2022-11-14T12:02:33.166Z,19.08
2022-11-14T12:05:00.810Z,14.60
2022-11-14T12:07:59.588Z,15.40
2022-11-14T12:13:10.520Z,19.00
2022-11-14T12:15:48.631Z,16.63
2022-11-14T12:18:14.851Z,20.48
2022-11-14T12:20:52.897Z,19.52
2022-11-14T12:23:25.841Z,19.02
2022-11-14T12:25:58.151Z,19.48
2022-11-14T12:28:36.720Z,21.30
2022-11-14T12:31:04.574Z,18.77
2022-11-14T12:33:53.644Z,22.02
2022-11-14T12:36:26.617Z,21.02
2022-11-14T12:38:53.829Z,83.70
2022-11-14T12:41:22.669Z,41.78
2022-11-14T12:43:48.964Z,24.30
2022-11-14T12:46:15.260Z,30.80
2022-11-14T12:48:42.594Z,17.70
2022-11-14T12:51:23.965Z,16.58
2022-11-14T12:53:50.244Z,19.35
2022-11-14T12:56:22.660Z,19.10
2022-11-14T12:58:51.891Z,18.00
2022-11-14T13:01:28.081Z,13.48
2022-11-14T13:04:12.446Z,14.32
2022-11-14T13:06:41.753Z,19.05
2022-11-14T13:09:28.011Z,16.52
2022-11-14T13:12:12.918Z,15.07
2022-11-14T13:15:11.043Z,16.20
2022-11-14T13:17:55.798Z,12.27
2022-11-14T13:20:40.564Z,18.80
2022-11-14T13:23:25.029Z,16.58
2022-11-14T13:26:09.843Z,15.05
2022-11-14T13:28:36.054Z,15.20
2022-11-14T13:31:21.146Z,17.08
2022-11-14T13:33:52.053Z,18.63
2022-11-14T13:36:21.352Z,15.10
2022-11-14T13:39:02.402Z,22.25
2022-11-14T13:41:48.217Z,16.30
2022-11-14T13:44:32.951Z,21.25
2022-11-14T13:47:11.567Z,20.10
2022-11-14T13:49:52.421Z,21.10
2022-11-14T13:52:18.852Z,19.08
2022-11-14T13:54:49.019Z,19.48
2022-11-14T13:57:24.583Z,15.65
2022-11-14T13:59:56.691Z,22.17
2022-11-14T14:02:25.954Z,16.17
2022-11-14T14:05:11.114Z,22.48
2022-11-14T14:07:52.740Z,22.02
2022-11-14T14:10:37.274Z,18.33
2022-11-14T14:13:36.206Z,17.60
2022-11-14T14:16:09.607Z,17.38
2022-11-14T14:18:35.812Z,15.75
2022-11-14T14:21:16.486Z,14.45
2022-11-14T14:23:48.875Z,15.73
2022-11-14T14:26:33.568Z,14.65
2022-11-14T14:29:03.623Z,18.17
2022-11-14T14:31:39.243Z,17.70
2022-11-14T14:34:20.564Z,15.32
2022-11-14T14:36:50.857Z,14.55
2022-11-14T14:39:18.748Z,14.07
2022-11-14T14:41:45.588Z,20.25
2022-11-14T14:44:19.119Z,19.00
2022-11-14T14:46:45.386Z,16.13
2022-11-14T14:49:11.624Z,19.98
2022-11-14T14:51:42.799Z,18.00
2022-11-14T14:54:18.532Z,27.15
2022-11-14T14:56:55.314Z,31.50
2022-11-14T14:59:25.288Z,40.97
2022-11-14T15:01:51.737Z,19.92
2022-11-14T15:04:18.927Z,16.15
2022-11-14T15:06:46.401Z,18.35
2022-11-14T15:09:18.775Z,15.63
2022-11-14T15:11:46.155Z,21.20
2022-11-14T15:14:13.711Z,14.27
2022-11-14T15:16:40.024Z,17.20
2022-11-14T15:19:06.316Z,18.10
2022-11-14T15:21:32.542Z,17.95
2022-11-14T15:24:13.187Z,25.05
2022-11-14T15:26:39.739Z,16.67
2022-11-14T15:29:18.503Z,16.80
2022-11-14T15:31:49.256Z,18.80
2022-11-14T15:34:21.580Z,19.80
2022-11-14T15:37:06.163Z,32.75
2022-11-14T15:39:32.411Z,17.35
2022-11-14T15:42:17.606Z,22.98
2022-11-14T15:44:43.921Z,18.52
2022-11-14T15:47:12.343Z,24.13
2022-11-14T15:49:38.740Z,20.15
2022-11-14T15:52:05.868Z,22.00
2022-11-14T15:54:33.000Z,18.33
2022-11-14T15:57:00.373Z,18.98
2022-11-14T15:59:27.494Z,15.05
2022-11-14T16:01:56.326Z,23.17
2022-11-14T16:04:24.955Z,17.15
2022-11-14T16:06:51.257Z,17.58
2022-11-14T16:09:18.801Z,19.95
2022-11-14T16:11:45.083Z,17.55
2022-11-14T16:14:11.610Z,16.70
2022-11-14T16:16:37.890Z,21.73
2022-11-14T16:19:04.122Z,16.95
2022-11-14T16:21:30.375Z,18.55
2022-11-14T16:23:57.811Z,16.65
2022-11-14T16:26:26.245Z,19.45
2022-11-14T16:28:52.949Z,20.13
2022-11-14T16:31:19.345Z,20.65
2022-11-14T16:33:45.595Z,18.15
2022-11-14T16:36:12.146Z,19.38
2022-11-14T16:38:38.477Z,21.92
2022-11-14T16:41:08.531Z,21.50
2022-11-14T16:43:34.819Z,18.48
2022-11-14T16:46:04.968Z,18.77
2022-11-14T16:48:31.194Z,18.85
2022-11-14T16:51:14.931Z,17.63
2022-11-14T16:53:54.005Z,20.63
2022-11-14T16:56:20.230Z,25.88
2022-11-14T16:58:46.536Z,25.83
2022-11-14T17:01:18.730Z,22.83
2022-11-14T17:03:47.390Z,28.17
2022-11-14T17:06:13.624Z,28.85
2022-11-14T17:08:39.826Z,25.08
2022-11-14T17:11:09.999Z,20.05
2022-11-14T17:13:37.019Z,26.35
2022-11-14T17:18:33.976Z,35.17
2022-11-14T17:21:07.752Z,57.78
2022-11-14T17:23:34.028Z,60.75
2022-11-14T17:26:07.255Z,38.33
2022-11-14T17:28:33.981Z,30.63
2022-11-14T17:31:00.470Z,29.02
2022-11-14T17:33:26.703Z,20.48
2022-11-14T17:35:52.944Z,19.13
2022-11-14T17:38:19.212Z,18.10
2022-11-14T17:40:45.964Z,18.25
2022-11-14T17:43:14.172Z,18.98
2022-11-14T17:45:41.350Z,18.60
2022-11-14T17:48:07.746Z,25.83
2022-11-14T17:50:37.984Z,20.35
2022-11-14T17:53:04.254Z,21.38
2022-11-14T17:55:30.506Z,25.85
2022-11-14T17:57:56.817Z,18.48
2022-11-14T18:00:23.073Z,20.95
2022-11-14T18:02:49.379Z,20.27
2022-11-14T18:05:15.752Z,20.58
2022-11-14T18:07:41.999Z,19.50
2022-11-14T18:10:08.470Z,29.77
2022-11-14T18:12:34.778Z,26.02
2022-11-14T18:15:01.023Z,40.97
2022-11-14T18:17:27.606Z,29.73
2022-11-14T18:19:56.102Z,49.90
2022-11-14T18:22:22.349Z,31.90
2022-11-14T18:24:48.619Z,23.02
2022-11-14T18:27:14.907Z,19.88
2022-11-14T18:29:41.148Z,16.27
2022-11-14T18:32:07.383Z,17.85
2022-11-14T18:34:36.683Z,18.38
2022-11-14T18:37:03.574Z,19.13
2022-11-14T18:39:30.613Z,19.25
2022-11-14T18:44:24.733Z,17.85
2022-11-14T18:46:50.975Z,19.95
2022-11-14T18:49:17.208Z,18.50
2022-11-14T18:51:43.592Z,18.75
2022-11-14T18:54:11.009Z,20.13
2022-11-14T18:56:37.263Z,14.15
2022-11-14T18:59:03.752Z,15.68
2022-11-14T19:01:31.991Z,17.95
2022-11-14T19:03:59.386Z,15.27
2022-11-14T19:06:26.298Z,18.77
2022-11-14T19:11:37.239Z,19.17
2022-11-14T19:14:04.966Z,16.38
2022-11-14T19:16:32.158Z,14.30
2022-11-14T19:18:58.925Z,20.08
2022-11-14T19:21:25.605Z,15.40
2022-11-14T19:23:52.042Z,15.80
2022-11-14T19:26:18.297Z,17.83
2022-11-14T19:28:44.525Z,19.77
2022-11-14T19:31:10.943Z,35.13
2022-11-14T19:33:39.421Z,24.02
2022-11-14T19:36:06.586Z,20.10
2022-11-14T19:38:33.162Z,21.98
2022-11-14T19:41:05.389Z,20.85
2022-11-14T19:43:31.844Z,26.20
2022-11-14T19:46:02.356Z,29.45
2022-11-14T19:48:28.659Z,32.92
2022-11-14T19:51:09.432Z,36.30
2022-11-14T19:53:36.406Z,43.17
2022-11-14T19:58:28.962Z,24.80
2022-11-14T20:01:02.304Z,23.00
2022-11-14T20:03:29.025Z,29.10
2022-11-14T20:08:21.976Z,155.55
2022-11-14T20:10:54.502Z,34.28
2022-11-14T20:13:20.941Z,25.83
2022-11-14T20:15:47.188Z,27.52
2022-11-14T20:18:13.488Z,26.98
2022-11-14T20:20:39.740Z,21.25
2022-11-14T20:23:06.347Z,21.95
2022-11-14T20:25:34.735Z,21.60
2022-11-14T20:28:01.468Z,21.98
2022-11-14T20:30:28.188Z,20.75
2022-11-14T20:32:54.533Z,24.58
2022-11-14T20:35:20.746Z,27.30
2022-11-14T20:37:47.536Z,29.65
2022-11-14T20:40:13.764Z,23.77
2022-11-14T20:42:40.000Z,30.75
2022-11-14T20:45:06.384Z,25.08
2022-11-14T20:47:32.619Z,25.27
2022-11-14T20:49:58.896Z,27.30
2022-11-14T20:52:25.125Z,22.20
2022-11-14T20:54:51.354Z,26.17
2022-11-14T20:57:17.569Z,29.38
2022-11-14T20:59:43.888Z,20.88
2022-11-14T21:02:11.452Z,27.48
2022-11-14T21:04:37.759Z,26.02
2022-11-14T21:07:04.028Z,24.60
2022-11-14T21:09:30.407Z,23.45
2022-11-14T21:11:56.745Z,23.60
2022-11-14T21:14:23.016Z,23.98
2022-11-14T21:16:49.262Z,29.25
2022-11-14T21:19:15.545Z,26.50
2022-11-14T21:21:41.797Z,25.52
2022-11-14T21:24:08.060Z,27.85
2022-11-14T21:26:36.935Z,23.55
2022-11-14T21:29:08.192Z,23.00
2022-11-14T21:31:38.596Z,22.55
2022-11-14T21:34:09.997Z,28.20
2022-11-14T21:36:45.399Z,27.40
2022-11-14T21:39:14.674Z,24.42
2022-11-14T21:41:42.087Z,26.85
2022-11-14T21:44:09.784Z,36.05
2022-11-14T21:46:36.004Z,28.00
2022-11-14T21:49:02.314Z,34.53
2022-11-14T21:51:28.885Z,27.67
2022-11-14T21:53:58.515Z,29.27
2022-11-14T21:56:25.738Z,24.70
2022-11-14T21:59:12.173Z,25.08
2022-11-14T22:01:57.889Z,23.50
2022-11-14T22:04:24.535Z,24.38
2022-11-14T22:06:50.822Z,27.20
2022-11-14T22:09:17.105Z,26.08
2022-11-14T22:11:43.329Z,26.60
2022-11-14T22:14:09.585Z,23.27
2022-11-14T22:16:35.821Z,24.55
2022-11-14T22:19:05.260Z,23.92
2022-11-14T22:21:31.670Z,24.48
2022-11-14T22:23:57.940Z,27.45
2022-11-14T22:26:24.344Z,27.38
2022-11-14T22:28:50.630Z,23.10
2022-11-14T22:31:18.991Z,26.83
2022-11-14T22:33:46.928Z,25.60
2022-11-14T22:36:14.858Z,27.65
2022-11-14T22:38:41.678Z,23.98
2022-11-14T22:41:11.002Z,24.35
2022-11-14T22:43:37.222Z,26.45
2022-11-14T22:46:03.724Z,25.17
2022-11-14T22:48:31.981Z,24.90
2022-11-14T22:50:58.819Z,24.73
2022-11-14T22:53:25.172Z,23.85
2022-11-14T22:55:51.420Z,21.33
2022-11-14T22:58:17.647Z,19.80
2022-11-14T23:00:43.904Z,21.40
2022-11-14T23:03:10.228Z,21.80
2022-11-14T23:05:36.842Z,18.25
2022-11-14T23:08:04.055Z,20.20
2022-11-14T23:10:30.551Z,21.17
2022-11-14T23:12:56.788Z,19.83
2022-11-14T23:15:23.011Z,20.95
2022-11-14T23:17:49.244Z,16.95
2022-11-14T23:20:16.831Z,18.02
2022-11-14T23:22:43.170Z,19.98
2022-11-14T23:25:09.685Z,23.77
2022-11-14T23:27:36.032Z,20.15
2022-11-14T23:30:02.324Z,23.45
2022-11-14T23:32:29.032Z,17.67
2022-11-14T23:34:55.363Z,24.88
2022-11-14T23:37:21.603Z,22.23
2022-11-14T23:39:47.867Z,23.75
2022-11-14T23:42:14.083Z,18.70
2022-11-14T23:44:40.306Z,23.42
2022-11-14T23:47:06.531Z,23.40
2022-11-14T23:49:32.787Z,19.60
2022-11-14T23:51:59.035Z,18.63
2022-11-14T23:54:25.312Z,26.40
2022-11-14T23:56:51.567Z,24.80
2022-11-14T23:59:17.787Z,23.85
